createdAt,value
2023-03-25T00:02:52.287Z,8.90
2023-03-25T00:06:17.571Z,9.60
2023-03-25T00:09:42.362Z,9.00
2023-03-25T00:13:08.314Z,9.30
2023-03-25T00:16:32.598Z,9.80
2023-03-25T00:19:56.845Z,10.10
2023-03-25T00:23:22.354Z,9.50
2023-03-25T00:26:49.784Z,9.70
2023-03-25T00:30:14.281Z,10.00
2023-03-25T00:33:38.216Z,10.50
2023-03-25T00:37:03.671Z,10.30
2023-03-25T00:43:59.567Z,10.60
2023-03-25T00:47:24.610Z,11.10
2023-03-25T00:50:48.992Z,10.50
2023-03-25T00:54:13.175Z,10.20
2023-03-25T00:57:38.096Z,10.30
2023-03-25T01:01:03.165Z,10.50
2023-03-25T01:04:27.671Z,10.40
2023-03-25T01:07:52.034Z,10.30
2023-03-25T01:11:22.591Z,9.80
2023-03-25T01:14:47.342Z,9.80
2023-03-25T01:18:11.977Z,10.10
2023-03-25T01:21:36.922Z,9.80
2023-03-25T01:25:00.742Z,9.60
2023-03-25T01:28:29.718Z,10.40
2023-03-25T01:31:54.355Z,10.90
2023-03-25T01:35:18.497Z,10.60
2023-03-25T01:38:43.365Z,11.60
2023-03-25T01:42:07.341Z,10.30
2023-03-25T01:45:33.896Z,10.80
2023-03-25T01:49:00.007Z,10.90
2023-03-25T01:52:29.912Z,10.20
2023-03-25T01:55:55.080Z,10.80
2023-03-25T01:59:25.295Z,12.00
2023-03-25T02:02:51.067Z,12.40
2023-03-25T02:06:45.933Z,12.40
2023-03-25T02:10:11.951Z,11.10
2023-03-25T02:13:39.765Z,11.60
2023-03-25T02:17:14.030Z,11.70
2023-03-25T02:20:47.405Z,12.40
2023-03-25T02:24:46.129Z,12.20
2023-03-25T02:28:26.301Z,13.20
2023-03-25T02:32:20.765Z,12.20
2023-03-25T02:36:12.150Z,12.10
2023-03-25T02:39:47.547Z,11.90
2023-03-25T02:43:25.852Z,12.40
2023-03-25T02:46:57.014Z,12.40
2023-03-25T02:50:28.817Z,13.00
2023-03-25T02:53:55.435Z,13.10
2023-03-25T02:57:24.022Z,11.20
2023-03-25T03:00:52.262Z,11.30
2023-03-25T03:04:16.284Z,11.30
2023-03-25T03:07:48.358Z,9.00
2023-03-25T03:11:21.643Z,9.10
2023-03-25T03:15:29.182Z,9.00
2023-03-25T03:19:21.240Z,8.30
2023-03-25T03:23:11.043Z,9.40
2023-03-25T03:26:45.318Z,7.90
2023-03-25T03:30:39.305Z,8.00
2023-03-25T03:34:23.574Z,7.60
2023-03-25T03:37:58.213Z,6.90
2023-03-25T03:41:27.199Z,7.60
2023-03-25T03:44:57.504Z,8.00
2023-03-25T03:48:32.038Z,7.40
2023-03-25T03:52:09.761Z,6.90
2023-03-25T03:55:49.808Z,7.10
2023-03-25T03:59:22.265Z,6.90
2023-03-25T04:02:51.993Z,7.00
2023-03-25T04:06:30.898Z,7.40
2023-03-25T04:10:02.876Z,7.20
2023-03-25T04:13:33.054Z,7.50
2023-03-25T04:16:56.910Z,7.30
2023-03-25T04:20:26.346Z,7.10
2023-03-25T04:23:51.795Z,7.20
2023-03-25T04:27:16.036Z,7.50
2023-03-25T04:30:39.828Z,7.60
2023-03-25T04:34:04.623Z,7.90
2023-03-25T04:37:29.853Z,6.90
2023-03-25T04:40:53.959Z,7.40
2023-03-25T04:44:18.621Z,7.90
2023-03-25T04:47:45.004Z,7.80
2023-03-25T04:51:12.245Z,8.00
2023-03-25T04:54:38.576Z,8.20
2023-03-25T04:58:02.412Z,8.40
2023-03-25T05:01:30.866Z,7.60
2023-03-25T05:05:02.216Z,7.60
2023-03-25T05:08:26.089Z,8.30
2023-03-25T05:11:51.553Z,7.70
2023-03-25T05:15:17.276Z,8.50
2023-03-25T05:18:41.124Z,7.80
2023-03-25T05:22:05.223Z,8.00
2023-03-25T05:25:29.215Z,7.70
2023-03-25T05:28:56.800Z,7.10
2023-03-25T05:32:21.739Z,7.00
2023-03-25T05:35:46.307Z,7.00
2023-03-25T05:39:11.060Z,7.20
2023-03-25T05:42:37.889Z,7.20
2023-03-25T05:46:01.744Z,7.60
2023-03-25T05:49:25.579Z,6.70
2023-03-25T05:52:51.972Z,6.90
2023-03-25T05:56:18.029Z,7.60
2023-03-25T05:59:41.837Z,8.30
2023-03-25T06:03:08.734Z,8.50
2023-03-25T06:06:34.527Z,7.40
2023-03-25T06:09:58.518Z,8.00
2023-03-25T06:13:22.584Z,8.10
2023-03-25T06:16:46.977Z,7.80
2023-03-25T06:20:12.676Z,7.90
2023-03-25T06:23:36.544Z,7.40
2023-03-25T06:27:01.379Z,7.20
2023-03-25T06:30:25.466Z,8.30
2023-03-25T06:33:51.272Z,8.30
2023-03-25T06:40:39.281Z,7.50
2023-03-25T06:44:05.158Z,8.50
2023-03-25T06:47:49.365Z,8.20
2023-03-25T06:51:13.415Z,8.00
2023-03-25T06:54:37.394Z,8.70
2023-03-25T06:58:01.263Z,7.80
2023-03-25T07:01:25.381Z,8.40
2023-03-25T07:04:49.449Z,7.90
2023-03-25T07:08:13.415Z,7.80
2023-03-25T07:11:37.400Z,7.90
2023-03-25T07:15:01.537Z,7.90
2023-03-25T07:18:27.230Z,8.50
2023-03-25T07:21:51.151Z,10.10
2023-03-25T07:25:15.047Z,8.60
2023-03-25T07:28:39.227Z,9.90
2023-03-25T07:32:03.097Z,9.70
2023-03-25T07:35:27.111Z,9.40
2023-03-25T07:38:50.992Z,9.40
2023-03-25T07:42:14.746Z,9.10
2023-03-25T07:46:00.258Z,10.00
2023-03-25T07:49:26.777Z,9.60
2023-03-25T07:52:50.668Z,9.30
2023-03-25T07:56:16.925Z,8.60
2023-03-25T07:59:40.931Z,8.70
2023-03-25T08:03:05.923Z,10.10
2023-03-25T08:06:29.802Z,9.50
2023-03-25T08:09:53.563Z,9.90
2023-03-25T08:13:17.387Z,11.00
2023-03-25T08:16:41.411Z,11.30
2023-03-25T08:20:06.644Z,9.60
2023-03-25T08:23:30.476Z,9.20
2023-03-25T08:26:55.106Z,9.40
2023-03-25T08:30:18.922Z,8.60
2023-03-25T08:33:43.124Z,8.50
2023-03-25T08:37:08.483Z,8.70
2023-03-25T08:43:56.906Z,8.80
2023-03-25T08:47:20.930Z,8.50
2023-03-25T08:50:45.131Z,8.80
2023-03-25T08:54:09.211Z,8.80
2023-03-25T08:57:33.054Z,9.30
2023-03-25T09:00:58.418Z,10.10
2023-03-25T09:04:22.499Z,9.30
2023-03-25T09:07:46.852Z,10.30
2023-03-25T09:11:12.128Z,10.60
2023-03-25T09:14:36.083Z,9.50
2023-03-25T09:18:00.028Z,8.40
2023-03-25T09:21:23.970Z,10.30
2023-03-25T09:24:47.756Z,9.80
2023-03-25T09:28:11.679Z,10.60
2023-03-25T09:31:36.169Z,10.80
2023-03-25T09:35:00.138Z,10.40
2023-03-25T09:38:24.040Z,10.20
2023-03-25T09:42:10.729Z,10.90
2023-03-25T09:45:38.957Z,9.50
2023-03-25T09:49:03.954Z,8.30
2023-03-25T09:52:36.185Z,8.70
2023-03-25T09:56:01.588Z,9.00
2023-03-25T09:59:41.212Z,9.50
2023-03-25T10:03:18.507Z,9.80
2023-03-25T10:06:57.929Z,9.50
2023-03-25T10:10:45.613Z,9.00
2023-03-25T10:14:12.515Z,9.30
2023-03-25T10:17:56.921Z,10.00
2023-03-25T10:21:37.139Z,9.20
2023-03-25T10:25:04.674Z,8.20
2023-03-25T10:28:34.853Z,8.80
2023-03-25T10:32:08.835Z,8.90
2023-03-25T10:35:39.772Z,8.60
2023-03-25T10:39:08.016Z,8.70
2023-03-25T10:42:37.113Z,9.50
2023-03-25T10:46:51.780Z,8.80
2023-03-25T10:50:20.386Z,8.30
2023-03-25T10:53:53.200Z,8.50
2023-03-25T10:57:26.092Z,9.10
2023-03-25T11:00:57.606Z,8.40
2023-03-25T11:04:23.262Z,8.10
2023-03-25T11:08:14.950Z,8.90
2023-03-25T11:11:49.158Z,9.90
2023-03-25T11:15:21.939Z,7.90
2023-03-25T11:18:48.364Z,7.30
2023-03-25T11:22:18.293Z,7.50
2023-03-25T11:25:43.713Z,7.90
2023-03-25T11:29:13.836Z,8.50
2023-03-25T11:32:40.497Z,11.50
2023-03-25T11:36:28.958Z,9.30
2023-03-25T11:39:55.923Z,9.40
2023-03-25T11:43:26.381Z,8.20
2023-03-25T11:46:55.634Z,8.70
2023-03-25T11:50:26.797Z,7.90
2023-03-25T11:53:59.285Z,7.20
2023-03-25T11:57:37.378Z,8.20
2023-03-25T12:01:04.048Z,7.40
2023-03-25T12:04:28.001Z,7.60
2023-03-25T12:08:01.461Z,6.40
2023-03-25T12:11:30.822Z,6.60
2023-03-25T12:15:19.935Z,7.80
2023-03-25T12:19:26.012Z,7.90
2023-03-25T12:23:05.521Z,7.10
2023-03-25T12:27:08.742Z,5.80
2023-03-25T12:30:43.625Z,6.60
2023-03-25T12:34:34.793Z,7.20
2023-03-25T12:38:17.417Z,6.10
2023-03-25T12:41:50.609Z,6.30
2023-03-25T12:45:39.883Z,6.30
2023-03-25T12:49:43.455Z,6.50
2023-03-25T12:53:26.190Z,8.70
2023-03-25T12:57:19.347Z,6.60
2023-03-25T13:01:02.162Z,6.80
2023-03-25T13:04:56.025Z,6.10
2023-03-25T13:08:23.209Z,7.10
2023-03-25T13:11:50.573Z,6.50
2023-03-25T13:15:27.567Z,6.90
2023-03-25T13:19:15.500Z,6.20
2023-03-25T13:22:45.043Z,6.20
2023-03-25T13:26:15.356Z,6.20
2023-03-25T13:29:45.534Z,5.90
2023-03-25T13:33:15.776Z,7.00
2023-03-25T13:36:44.368Z,6.90
2023-03-25T13:40:11.779Z,6.40
2023-03-25T13:43:43.566Z,6.50
2023-03-25T13:47:13.791Z,7.60
2023-03-25T13:50:38.140Z,6.60
2023-03-25T13:54:08.156Z,5.10
2023-03-25T13:57:59.227Z,5.40
2023-03-25T14:01:54.783Z,6.20
2023-03-25T14:05:53.577Z,6.20
2023-03-25T14:09:37.309Z,5.90
2023-03-25T14:13:06.953Z,6.20
2023-03-25T14:16:36.931Z,6.30
2023-03-25T14:20:01.715Z,6.40
2023-03-25T14:23:29.199Z,5.80
2023-03-25T14:26:58.036Z,5.40
2023-03-25T14:30:28.314Z,4.70
2023-03-25T14:34:02.191Z,5.00
2023-03-25T14:37:29.439Z,5.50
2023-03-25T14:41:03.483Z,4.80
2023-03-25T14:44:33.205Z,4.40
2023-03-25T14:47:57.675Z,4.80
2023-03-25T14:51:27.897Z,4.50
2023-03-25T14:54:54.186Z,4.50
2023-03-25T14:58:30.008Z,5.70
2023-03-25T15:05:30.552Z,4.30
2023-03-25T15:08:59.606Z,5.10
2023-03-25T15:12:26.535Z,8.60
2023-03-25T15:15:52.085Z,7.00
2023-03-25T15:19:18.083Z,7.50
2023-03-25T15:22:41.927Z,8.80
2023-03-25T15:26:11.311Z,7.70
2023-03-25T15:29:53.849Z,7.50
2023-03-25T15:33:53.533Z,17.70
2023-03-25T15:37:56.000Z,13.70
2023-03-25T15:41:46.996Z,17.50
2023-03-25T15:45:20.195Z,13.60
2023-03-25T15:48:56.461Z,12.30
2023-03-25T15:52:54.029Z,9.80
2023-03-25T15:56:22.957Z,4.40
2023-03-25T16:00:13.445Z,5.60
2023-03-25T16:03:39.190Z,6.40
2023-03-25T16:07:06.958Z,5.30
2023-03-25T16:10:36.643Z,5.90
2023-03-25T16:14:12.484Z,5.70
2023-03-25T16:17:37.557Z,6.80
2023-03-25T16:21:03.230Z,7.50
2023-03-25T16:24:29.945Z,9.10
2023-03-25T16:27:57.284Z,9.40
2023-03-25T16:31:35.226Z,12.20
2023-03-25T16:34:59.211Z,21.00
2023-03-25T16:38:25.608Z,52.20
2023-03-25T16:41:51.768Z,20.80
2023-03-25T16:45:17.010Z,11.00
2023-03-25T16:48:43.516Z,13.60
2023-03-25T16:52:19.755Z,9.60
2023-03-25T16:59:26.245Z,11.50
2023-03-25T17:02:50.813Z,9.40
2023-03-25T17:06:28.256Z,9.30
2023-03-25T17:09:55.353Z,8.10
2023-03-25T17:13:42.960Z,12.40
2023-03-25T17:17:28.755Z,9.80
2023-03-25T17:20:58.895Z,13.70
2023-03-25T17:24:25.246Z,13.10
2023-03-25T17:27:49.271Z,13.50
2023-03-25T17:31:29.747Z,12.20
2023-03-25T17:35:07.612Z,9.30
2023-03-25T17:38:37.400Z,11.00
2023-03-25T17:42:07.302Z,15.80
2023-03-25T17:45:31.171Z,18.70
2023-03-25T17:48:57.772Z,17.80
2023-03-25T17:52:21.501Z,19.30
2023-03-25T17:55:46.736Z,30.30
2023-03-25T17:59:25.887Z,25.70
2023-03-25T18:02:49.869Z,16.60
2023-03-25T18:06:13.908Z,13.80
2023-03-25T18:09:39.262Z,9.20
2023-03-25T18:13:03.308Z,11.90
2023-03-25T18:16:27.265Z,8.70
2023-03-25T18:19:51.240Z,11.00
2023-03-25T18:23:16.004Z,7.20
2023-03-25T18:26:40.703Z,9.60
2023-03-25T18:30:24.141Z,8.10
2023-03-25T18:33:50.127Z,20.00
2023-03-25T18:37:13.925Z,14.90
2023-03-25T18:40:38.125Z,13.80
2023-03-25T18:44:01.915Z,11.90
2023-03-25T18:47:25.998Z,12.20
2023-03-25T18:50:55.673Z,9.80
2023-03-25T18:54:19.596Z,8.90
2023-03-25T18:57:44.085Z,8.60
2023-03-25T19:01:08.609Z,8.20
2023-03-25T19:04:50.612Z,8.30
2023-03-25T19:08:26.114Z,8.90
2023-03-25T19:11:50.827Z,9.20
2023-03-25T19:15:16.831Z,8.40
2023-03-25T19:18:40.727Z,10.90
2023-03-25T19:22:05.127Z,11.50
2023-03-25T19:25:30.027Z,9.20
2023-03-25T19:28:53.916Z,9.20
2023-03-25T19:32:17.803Z,9.60
2023-03-25T19:35:44.312Z,9.60
2023-03-25T19:39:10.794Z,10.20
2023-03-25T19:42:34.902Z,23.40
2023-03-25T19:45:59.519Z,29.50
2023-03-25T19:49:36.800Z,27.40
2023-03-25T19:53:06.275Z,20.50
2023-03-25T19:56:30.178Z,17.80
2023-03-25T19:59:54.123Z,17.30
2023-03-25T20:03:22.343Z,17.60
2023-03-25T20:06:46.993Z,19.20
2023-03-25T20:10:19.893Z,19.20
2023-03-25T20:13:44.404Z,18.70
2023-03-25T20:17:08.279Z,19.40
2023-03-25T20:20:32.255Z,20.30
2023-03-25T20:23:56.327Z,19.30
2023-03-25T20:27:20.525Z,18.00
2023-03-25T20:30:44.375Z,18.10
2023-03-25T20:34:09.803Z,16.00
2023-03-25T20:37:33.689Z,16.10
2023-03-25T20:40:57.672Z,16.00
2023-03-25T20:44:21.967Z,18.70
2023-03-25T20:47:46.435Z,19.20
2023-03-25T20:51:11.749Z,26.70
2023-03-25T20:54:35.762Z,28.60
2023-03-25T20:57:59.588Z,26.40
2023-03-25T21:01:23.661Z,24.80
2023-03-25T21:04:47.803Z,21.90
2023-03-25T21:08:13.474Z,21.20
